sensor_id;sensor_type;location;lat;lon;timestamp;P1;durP1;ratioP1;P2;durP2;ratioP2
30647;SDS011;17683;53.360;9.736;2023-08-31T00:00:06;6.85;;;6.20;;
30647;SDS011;17683;53.360;9.736;2023-08-31T00:02:34;6.38;;;5.45;;
30647;SDS011;17683;53.360;9.736;2023-08-31T00:05:00;6.72;;;6.03;;
30647;SDS011;17683;53.360;9.736;2023-08-31T00:07:26;9.30;;;7.63;;
30647;SDS011;17683;53.360;9.736;2023-08-31T00:09:52;7.38;;;6.18;;
30647;SDS011;17683;53.360;9.736;2023-08-31T00:12:17;8.68;;;7.03;;
30647;SDS011;17683;53.360;9.736;2023-08-31T00:14:43;8.50;;;7.53;;
30647;SDS011;17683;53.360;9.736;2023-08-31T00:17:09;8.02;;;6.97;;
30647;SDS011;17683;53.360;9.736;2023-08-31T00:19:34;9.45;;;6.93;;
30647;SDS011;17683;53.360;9.736;2023-08-31T00:22:00;7.20;;;6.50;;
30647;SDS011;17683;53.360;9.736;2023-08-31T00:24:26;8.63;;;6.72;;
30647;SDS011;17683;53.360;9.736;2023-08-31T00:26:56;8.32;;;6.90;;
30647;SDS011;17683;53.360;9.736;2023-08-31T00:29:22;11.13;;;7.07;;
30647;SDS011;17683;53.360;9.736;2023-08-31T00:31:50;8.45;;;7.22;;
30647;SDS011;17683;53.360;9.736;2023-08-31T00:34:18;6.03;;;5.40;;
30647;SDS011;17683;53.360;9.736;2023-08-31T00:36:44;10.63;;;6.75;;
30647;SDS011;17683;53.360;9.736;2023-08-31T00:39:09;8.23;;;7.35;;
30647;SDS011;17683;53.360;9.736;2023-08-31T00:41:36;7.82;;;6.50;;
30647;SDS011;17683;53.360;9.736;2023-08-31T00:44:02;6.97;;;6.03;;
30647;SDS011;17683;53.360;9.736;2023-08-31T00:46:33;6.82;;;6.13;;
30647;SDS011;17683;53.360;9.736;2023-08-31T00:48:59;7.38;;;6.60;;
30647;SDS011;17683;53.360;9.736;2023-08-31T00:51:25;6.93;;;6.13;;
30647;SDS011;17683;53.360;9.736;2023-08-31T00:53:51;8.25;;;6.50;;
30647;SDS011;17683;53.360;9.736;2023-08-31T00:56:20;6.97;;;5.85;;
30647;SDS011;17683;53.360;9.736;2023-08-31T00:58:47;6.53;;;5.82;;
30647;SDS011;17683;53.360;9.736;2023-08-31T01:01:48;6.57;;;5.80;;
30647;SDS011;17683;53.360;9.736;2023-08-31T01:07:09;8.38;;;6.15;;
30647;SDS011;17683;53.360;9.736;2023-08-31T01:12:46;7.15;;;5.85;;
30647;SDS011;17683;53.360;9.736;2023-08-31T01:15:17;7.53;;;6.43;;
30647;SDS011;17683;53.360;9.736;2023-08-31T01:17:50;8.10;;;5.72;;
30647;SDS011;17683;53.360;9.736;2023-08-31T01:23:02;6.65;;;5.22;;
30647;SDS011;17683;53.360;9.736;2023-08-31T01:25:32;7.95;;;5.55;;
30647;SDS011;17683;53.360;9.736;2023-08-31T01:27:59;6.07;;;4.97;;
30647;SDS011;17683;53.360;9.736;2023-08-31T01:30:25;5.90;;;5.30;;
30647;SDS011;17683;53.360;9.736;2023-08-31T01:32:54;7.43;;;5.55;;
30647;SDS011;17683;53.360;9.736;2023-08-31T01:35:20;6.47;;;5.45;;
30647;SDS011;17683;53.360;9.736;2023-08-31T01:37:47;6.28;;;5.68;;
30647;SDS011;17683;53.360;9.736;2023-08-31T01:40:23;7.53;;;4.88;;
30647;SDS011;17683;53.360;9.736;2023-08-31T01:43:03;7.70;;;5.28;;
30647;SDS011;17683;53.360;9.736;2023-08-31T01:45:31;11.75;;;5.85;;
30647;SDS011;17683;53.360;9.736;2023-08-31T01:48:02;6.20;;;4.55;;
30647;SDS011;17683;53.360;9.736;2023-08-31T01:50:29;6.32;;;5.60;;
30647;SDS011;17683;53.360;9.736;2023-08-31T01:52:55;7.78;;;5.30;;
30647;SDS011;17683;53.360;9.736;2023-08-31T01:55:24;5.40;;;4.78;;
30647;SDS011;17683;53.360;9.736;2023-08-31T01:57:50;13.45;;;6.05;;
30647;SDS011;17683;53.360;9.736;2023-08-31T02:00:16;7.90;;;5.68;;
30647;SDS011;17683;53.360;9.736;2023-08-31T02:02:43;7.07;;;4.78;;
30647;SDS011;17683;53.360;9.736;2023-08-31T02:05:09;7.07;;;5.30;;
30647;SDS011;17683;53.360;9.736;2023-08-31T02:07:35;5.40;;;4.85;;
30647;SDS011;17683;53.360;9.736;2023-08-31T02:10:01;5.68;;;5.05;;
30647;SDS011;17683;53.360;9.736;2023-08-31T02:12:27;8.00;;;4.63;;
30647;SDS011;17683;53.360;9.736;2023-08-31T02:14:53;5.78;;;4.75;;
30647;SDS011;17683;53.360;9.736;2023-08-31T02:17:19;7.75;;;5.70;;
30647;SDS011;17683;53.360;9.736;2023-08-31T02:19:44;6.30;;;5.15;;
30647;SDS011;17683;53.360;9.736;2023-08-31T02:22:10;5.57;;;4.45;;
30647;SDS011;17683;53.360;9.736;2023-08-31T02:24:36;10.93;;;5.82;;
30647;SDS011;17683;53.360;9.736;2023-08-31T02:27:02;6.93;;;4.85;;
30647;SDS011;17683;53.360;9.736;2023-08-31T02:29:27;8.93;;;5.70;;
30647;SDS011;17683;53.360;9.736;2023-08-31T02:31:53;11.90;;;5.75;;
30647;SDS011;17683;53.360;9.736;2023-08-31T02:34:19;7.10;;;4.63;;
30647;SDS011;17683;53.360;9.736;2023-08-31T02:36:45;8.00;;;4.70;;
30647;SDS011;17683;53.360;9.736;2023-08-31T02:39:10;8.00;;;4.50;;
30647;SDS011;17683;53.360;9.736;2023-08-31T02:41:37;9.20;;;5.15;;
30647;SDS011;17683;53.360;9.736;2023-08-31T02:44:03;7.97;;;5.80;;
30647;SDS011;17683;53.360;9.736;2023-08-31T02:46:29;5.82;;;5.00;;
30647;SDS011;17683;53.360;9.736;2023-08-31T02:48:55;9.07;;;5.13;;
30647;SDS011;17683;53.360;9.736;2023-08-31T02:51:21;8.45;;;4.70;;
30647;SDS011;17683;53.360;9.736;2023-08-31T02:53:47;5.63;;;5.00;;
30647;SDS011;17683;53.360;9.736;2023-08-31T02:56:13;5.93;;;4.70;;
30647;SDS011;17683;53.360;9.736;2023-08-31T02:58:39;6.75;;;5.60;;
30647;SDS011;17683;53.360;9.736;2023-08-31T03:01:08;9.68;;;5.05;;
30647;SDS011;17683;53.360;9.736;2023-08-31T03:03:39;5.03;;;4.53;;
30647;SDS011;17683;53.360;9.736;2023-08-31T03:06:06;5.72;;;4.70;;
30647;SDS011;17683;53.360;9.736;2023-08-31T03:08:33;7.53;;;4.88;;
30647;SDS011;17683;53.360;9.736;2023-08-31T03:10:59;8.05;;;4.78;;
30647;SDS011;17683;53.360;9.736;2023-08-31T03:13:24;6.03;;;4.18;;
30647;SDS011;17683;53.360;9.736;2023-08-31T03:15:50;5.78;;;4.18;;
30647;SDS011;17683;53.360;9.736;2023-08-31T03:18:16;7.28;;;4.90;;
30647;SDS011;17683;53.360;9.736;2023-08-31T03:20:41;7.28;;;4.53;;
30647;SDS011;17683;53.360;9.736;2023-08-31T03:23:08;9.82;;;4.65;;
30647;SDS011;17683;53.360;9.736;2023-08-31T03:25:35;6.78;;;4.45;;
30647;SDS011;17683;53.360;9.736;2023-08-31T03:28:00;8.68;;;4.97;;
30647;SDS011;17683;53.360;9.736;2023-08-31T03:30:26;6.40;;;4.15;;
30647;SDS011;17683;53.360;9.736;2023-08-31T03:32:52;4.10;;;3.70;;
30647;SDS011;17683;53.360;9.736;2023-08-31T03:35:17;5.93;;;3.63;;
30647;SDS011;17683;53.360;9.736;2023-08-31T03:37:46;5.18;;;4.20;;
30647;SDS011;17683;53.360;9.736;2023-08-31T03:40:12;7.55;;;4.28;;
30647;SDS011;17683;53.360;9.736;2023-08-31T03:42:38;5.97;;;3.95;;
30647;SDS011;17683;53.360;9.736;2023-08-31T03:45:04;7.47;;;4.05;;
30647;SDS011;17683;53.360;9.736;2023-08-31T03:47:30;5.68;;;3.83;;
30647;SDS011;17683;53.360;9.736;2023-08-31T03:49:56;6.30;;;4.63;;
30647;SDS011;17683;53.360;9.736;2023-08-31T03:52:22;9.55;;;4.57;;
30647;SDS011;17683;53.360;9.736;2023-08-31T03:54:48;8.27;;;4.05;;
30647;SDS011;17683;53.360;9.736;2023-08-31T03:57:14;6.50;;;4.63;;
30647;SDS011;17683;53.360;9.736;2023-08-31T03:59:40;8.77;;;4.10;;
30647;SDS011;17683;53.360;9.736;2023-08-31T04:02:06;6.55;;;4.53;;
30647;SDS011;17683;53.360;9.736;2023-08-31T04:04:31;7.82;;;4.20;;
30647;SDS011;17683;53.360;9.736;2023-08-31T04:06:59;5.65;;;4.38;;
30647;SDS011;17683;53.360;9.736;2023-08-31T04:09:24;9.82;;;4.25;;
30647;SDS011;17683;53.360;9.736;2023-08-31T04:11:50;8.05;;;3.90;;
30647;SDS011;17683;53.360;9.736;2023-08-31T04:14:16;5.72;;;4.20;;
30647;SDS011;17683;53.360;9.736;2023-08-31T04:16:43;12.43;;;4.43;;
30647;SDS011;17683;53.360;9.736;2023-08-31T04:19:09;4.28;;;3.88;;
30647;SDS011;17683;53.360;9.736;2023-08-31T04:21:35;7.97;;;4.43;;
30647;SDS011;17683;53.360;9.736;2023-08-31T04:24:03;10.02;;;4.60;;
30647;SDS011;17683;53.360;9.736;2023-08-31T04:26:30;6.05;;;4.68;;
30647;SDS011;17683;53.360;9.736;2023-08-31T04:28:56;5.95;;;4.50;;
30647;SDS011;17683;53.360;9.736;2023-08-31T04:31:22;7.93;;;4.07;;
30647;SDS011;17683;53.360;9.736;2023-08-31T04:33:48;10.88;;;4.85;;
30647;SDS011;17683;53.360;9.736;2023-08-31T04:36:13;4.78;;;3.30;;
30647;SDS011;17683;53.360;9.736;2023-08-31T04:38:39;5.88;;;4.40;;
30647;SDS011;17683;53.360;9.736;2023-08-31T04:41:05;7.00;;;4.38;;
30647;SDS011;17683;53.360;9.736;2023-08-31T04:43:31;8.55;;;4.72;;
30647;SDS011;17683;53.360;9.736;2023-08-31T04:45:57;8.18;;;4.57;;
30647;SDS011;17683;53.360;9.736;2023-08-31T04:48:22;6.15;;;4.00;;
30647;SDS011;17683;53.360;9.736;2023-08-31T04:50:48;7.45;;;4.18;;
30647;SDS011;17683;53.360;9.736;2023-08-31T04:53:14;5.45;;;4.13;;
30647;SDS011;17683;53.360;9.736;2023-08-31T04:55:39;6.50;;;4.40;;
30647;SDS011;17683;53.360;9.736;2023-08-31T04:58:05;9.07;;;4.38;;
30647;SDS011;17683;53.360;9.736;2023-08-31T05:00:31;6.10;;;4.10;;
30647;SDS011;17683;53.360;9.736;2023-08-31T05:02:57;10.52;;;5.20;;
30647;SDS011;17683;53.360;9.736;2023-08-31T05:05:22;14.93;;;4.55;;
30647;SDS011;17683;53.360;9.736;2023-08-31T05:07:48;9.45;;;4.47;;
30647;SDS011;17683;53.360;9.736;2023-08-31T05:10:14;11.27;;;4.60;;
30647;SDS011;17683;53.360;9.736;2023-08-31T05:12:40;8.82;;;4.88;;
30647;SDS011;17683;53.360;9.736;2023-08-31T05:15:06;6.10;;;5.25;;
30647;SDS011;17683;53.360;9.736;2023-08-31T05:17:32;5.50;;;4.55;;
30647;SDS011;17683;53.360;9.736;2023-08-31T05:19:57;5.72;;;4.32;;
30647;SDS011;17683;53.360;9.736;2023-08-31T05:22:23;4.65;;;4.07;;
30647;SDS011;17683;53.360;9.736;2023-08-31T05:24:49;6.15;;;4.32;;
30647;SDS011;17683;53.360;9.736;2023-08-31T05:27:15;10.82;;;4.78;;
30647;SDS011;17683;53.360;9.736;2023-08-31T05:29:40;7.78;;;4.60;;
30647;SDS011;17683;53.360;9.736;2023-08-31T05:32:06;6.07;;;4.90;;
30647;SDS011;17683;53.360;9.736;2023-08-31T05:34:32;6.18;;;4.65;;
30647;SDS011;17683;53.360;9.736;2023-08-31T05:37:02;6.53;;;4.28;;
30647;SDS011;17683;53.360;9.736;2023-08-31T05:39:30;7.70;;;4.50;;
30647;SDS011;17683;53.360;9.736;2023-08-31T05:41:55;15.98;;;6.78;;
30647;SDS011;17683;53.360;9.736;2023-08-31T05:44:22;9.68;;;4.93;;
30647;SDS011;17683;53.360;9.736;2023-08-31T05:46:48;7.20;;;4.90;;
30647;SDS011;17683;53.360;9.736;2023-08-31T05:49:13;11.15;;;5.32;;
30647;SDS011;17683;53.360;9.736;2023-08-31T05:51:39;7.22;;;5.05;;
30647;SDS011;17683;53.360;9.736;2023-08-31T05:54:05;9.75;;;5.78;;
30647;SDS011;17683;53.360;9.736;2023-08-31T05:56:35;8.82;;;5.78;;
30647;SDS011;17683;53.360;9.736;2023-08-31T05:59:01;8.32;;;5.07;;
30647;SDS011;17683;53.360;9.736;2023-08-31T06:01:27;9.35;;;5.63;;
30647;SDS011;17683;53.360;9.736;2023-08-31T06:03:53;7.53;;;4.93;;
30647;SDS011;17683;53.360;9.736;2023-08-31T06:06:18;9.38;;;5.07;;
30647;SDS011;17683;53.360;9.736;2023-08-31T06:08:44;7.15;;;5.43;;
30647;SDS011;17683;53.360;9.736;2023-08-31T06:11:10;9.00;;;5.35;;
30647;SDS011;17683;53.360;9.736;2023-08-31T06:13:35;7.07;;;5.18;;
30647;SDS011;17683;53.360;9.736;2023-08-31T06:16:02;12.20;;;6.00;;
30647;SDS011;17683;53.360;9.736;2023-08-31T06:18:28;8.80;;;5.28;;
30647;SDS011;17683;53.360;9.736;2023-08-31T06:20:54;12.88;;;5.90;;
30647;SDS011;17683;53.360;9.736;2023-08-31T06:23:19;7.18;;;5.57;;
30647;SDS011;17683;53.360;9.736;2023-08-31T06:25:45;9.63;;;5.82;;
30647;SDS011;17683;53.360;9.736;2023-08-31T06:28:11;13.40;;;6.53;;
30647;SDS011;17683;53.360;9.736;2023-08-31T06:30:37;9.95;;;5.80;;
30647;SDS011;17683;53.360;9.736;2023-08-31T06:33:03;9.73;;;6.20;;
30647;SDS011;17683;53.360;9.736;2023-08-31T06:35:30;9.30;;;5.72;;
30647;SDS011;17683;53.360;9.736;2023-08-31T06:37:58;9.57;;;5.38;;
30647;SDS011;17683;53.360;9.736;2023-08-31T06:40:24;13.45;;;6.05;;
30647;SDS011;17683;53.360;9.736;2023-08-31T06:42:50;6.00;;;4.82;;
30647;SDS011;17683;53.360;9.736;2023-08-31T06:45:16;7.80;;;4.97;;
30647;SDS011;17683;53.360;9.736;2023-08-31T06:47:41;14.07;;;5.93;;
30647;SDS011;17683;53.360;9.736;2023-08-31T06:50:07;9.82;;;6.00;;
30647;SDS011;17683;53.360;9.736;2023-08-31T06:52:33;12.15;;;6.50;;
30647;SDS011;17683;53.360;9.736;2023-08-31T06:54:59;16.55;;;6.10;;
30647;SDS011;17683;53.360;9.736;2023-08-31T06:57:25;8.73;;;5.60;;
30647;SDS011;17683;53.360;9.736;2023-08-31T06:59:52;12.13;;;6.18;;
30647;SDS011;17683;53.360;9.736;2023-08-31T07:02:18;9.45;;;4.90;;
30647;SDS011;17683;53.360;9.736;2023-08-31T07:04:45;8.57;;;5.35;;
30647;SDS011;17683;53.360;9.736;2023-08-31T07:07:11;10.70;;;6.07;;
30647;SDS011;17683;53.360;9.736;2023-08-31T07:09:43;10.63;;;6.22;;
30647;SDS011;17683;53.360;9.736;2023-08-31T07:12:10;5.38;;;4.20;;
30647;SDS011;17683;53.360;9.736;2023-08-31T07:14:36;5.32;;;4.60;;
30647;SDS011;17683;53.360;9.736;2023-08-31T07:17:02;8.82;;;5.22;;
30647;SDS011;17683;53.360;9.736;2023-08-31T07:19:28;7.95;;;4.63;;
30647;SDS011;17683;53.360;9.736;2023-08-31T07:21:54;6.63;;;4.50;;
30647;SDS011;17683;53.360;9.736;2023-08-31T07:24:20;8.52;;;4.60;;
30647;SDS011;17683;53.360;9.736;2023-08-31T07:26:46;10.27;;;5.30;;
30647;SDS011;17683;53.360;9.736;2023-08-31T07:29:12;16.25;;;4.53;;
30647;SDS011;17683;53.360;9.736;2023-08-31T07:31:38;8.50;;;4.88;;
30647;SDS011;17683;53.360;9.736;2023-08-31T07:34:04;8.23;;;4.45;;
30647;SDS011;17683;53.360;9.736;2023-08-31T07:36:30;9.43;;;4.65;;
30647;SDS011;17683;53.360;9.736;2023-08-31T07:38:55;12.95;;;5.03;;
30647;SDS011;17683;53.360;9.736;2023-08-31T07:41:21;5.88;;;4.97;;
30647;SDS011;17683;53.360;9.736;2023-08-31T07:43:47;9.77;;;4.35;;
30647;SDS011;17683;53.360;9.736;2023-08-31T07:46:14;8.50;;;4.43;;
30647;SDS011;17683;53.360;9.736;2023-08-31T07:48:41;6.88;;;4.40;;
30647;SDS011;17683;53.360;9.736;2023-08-31T07:51:08;9.35;;;5.47;;
30647;SDS011;17683;53.360;9.736;2023-08-31T07:53:34;10.93;;;5.13;;
30647;SDS011;17683;53.360;9.736;2023-08-31T07:55:59;9.07;;;5.18;;
30647;SDS011;17683;53.360;9.736;2023-08-31T07:58:25;10.25;;;4.47;;
30647;SDS011;17683;53.360;9.736;2023-08-31T08:00:54;10.98;;;5.50;;
30647;SDS011;17683;53.360;9.736;2023-08-31T08:03:23;7.47;;;4.35;;
30647;SDS011;17683;53.360;9.736;2023-08-31T08:05:50;7.15;;;4.40;;
30647;SDS011;17683;53.360;9.736;2023-08-31T08:08:16;6.63;;;4.55;;
30647;SDS011;17683;53.360;9.736;2023-08-31T08:10:41;9.07;;;4.47;;
30647;SDS011;17683;53.360;9.736;2023-08-31T08:13:08;7.32;;;4.93;;
30647;SDS011;17683;53.360;9.736;2023-08-31T08:15:34;7.03;;;4.68;;
30647;SDS011;17683;53.360;9.736;2023-08-31T08:18:00;8.88;;;4.53;;
30647;SDS011;17683;53.360;9.736;2023-08-31T08:20:27;8.30;;;4.82;;
30647;SDS011;17683;53.360;9.736;2023-08-31T08:22:55;8.18;;;5.13;;
30647;SDS011;17683;53.360;9.736;2023-08-31T08:25:22;8.57;;;5.80;;
30647;SDS011;17683;53.360;9.736;2023-08-31T08:27:48;13.73;;;5.50;;
30647;SDS011;17683;53.360;9.736;2023-08-31T08:30:14;6.03;;;4.40;;
30647;SDS011;17683;53.360;9.736;2023-08-31T08:32:40;8.02;;;4.82;;
30647;SDS011;17683;53.360;9.736;2023-08-31T08:35:06;8.65;;;4.88;;
30647;SDS011;17683;53.360;9.736;2023-08-31T08:37:33;9.05;;;4.50;;
30647;SDS011;17683;53.360;9.736;2023-08-31T08:39:59;8.10;;;4.75;;
30647;SDS011;17683;53.360;9.736;2023-08-31T08:42:25;11.23;;;4.50;;
30647;SDS011;17683;53.360;9.736;2023-08-31T08:44:53;8.98;;;4.53;;
30647;SDS011;17683;53.360;9.736;2023-08-31T08:47:22;9.75;;;5.20;;
30647;SDS011;17683;53.360;9.736;2023-08-31T08:49:47;7.35;;;4.43;;
30647;SDS011;17683;53.360;9.736;2023-08-31T08:52:14;5.90;;;4.13;;
30647;SDS011;17683;53.360;9.736;2023-08-31T08:54:41;8.15;;;4.47;;
30647;SDS011;17683;53.360;9.736;2023-08-31T08:57:06;8.75;;;4.57;;
30647;SDS011;17683;53.360;9.736;2023-08-31T08:59:32;11.20;;;4.88;;
30647;SDS011;17683;53.360;9.736;2023-08-31T09:01:58;6.72;;;4.80;;
30647;SDS011;17683;53.360;9.736;2023-08-31T09:04:24;8.88;;;5.80;;
30647;SDS011;17683;53.360;9.736;2023-08-31T09:06:53;6.10;;;4.10;;
30647;SDS011;17683;53.360;9.736;2023-08-31T09:09:18;7.38;;;5.30;;
30647;SDS011;17683;53.360;9.736;2023-08-31T09:11:44;5.55;;;4.30;;
30647;SDS011;17683;53.360;9.736;2023-08-31T09:14:17;10.38;;;4.43;;
30647;SDS011;17683;53.360;9.736;2023-08-31T09:16:47;6.35;;;4.40;;
30647;SDS011;17683;53.360;9.736;2023-08-31T09:19:18;7.28;;;4.65;;
30647;SDS011;17683;53.360;9.736;2023-08-31T09:21:45;6.97;;;4.25;;
30647;SDS011;17683;53.360;9.736;2023-08-31T09:24:12;7.68;;;4.80;;
30647;SDS011;17683;53.360;9.736;2023-08-31T09:26:39;7.43;;;4.70;;
30647;SDS011;17683;53.360;9.736;2023-08-31T09:29:08;11.00;;;4.75;;
30647;SDS011;17683;53.360;9.736;2023-08-31T09:31:35;10.88;;;5.38;;
30647;SDS011;17683;53.360;9.736;2023-08-31T09:34:01;7.45;;;5.20;;
30647;SDS011;17683;53.360;9.736;2023-08-31T09:36:28;7.72;;;5.22;;
30647;SDS011;17683;53.360;9.736;2023-08-31T09:38:56;8.27;;;4.90;;
30647;SDS011;17683;53.360;9.736;2023-08-31T09:41:23;8.15;;;5.15;;
30647;SDS011;17683;53.360;9.736;2023-08-31T09:43:49;8.15;;;5.20;;
30647;SDS011;17683;53.360;9.736;2023-08-31T09:46:15;6.60;;;4.53;;
30647;SDS011;17683;53.360;9.736;2023-08-31T09:48:42;6.05;;;4.22;;
30647;SDS011;17683;53.360;9.736;2023-08-31T09:51:11;6.53;;;5.25;;
30647;SDS011;17683;53.360;9.736;2023-08-31T09:53:41;6.13;;;4.87;;
30647;SDS011;17683;53.360;9.736;2023-08-31T09:56:08;9.93;;;5.60;;
30647;SDS011;17683;53.360;9.736;2023-08-31T09:58:43;7.10;;;4.60;;
30647;SDS011;17683;53.360;9.736;2023-08-31T10:01:09;6.10;;;4.05;;
30647;SDS011;17683;53.360;9.736;2023-08-31T10:03:34;5.60;;;3.92;;
30647;SDS011;17683;53.360;9.736;2023-08-31T10:06:00;6.55;;;4.35;;
30647;SDS011;17683;53.360;9.736;2023-08-31T10:08:27;5.07;;;4.57;;
30647;SDS011;17683;53.360;9.736;2023-08-31T10:10:57;4.80;;;4.18;;
30647;SDS011;17683;53.360;9.736;2023-08-31T10:13:25;5.72;;;4.78;;
30647;SDS011;17683;53.360;9.736;2023-08-31T10:15:53;5.25;;;4.13;;
30647;SDS011;17683;53.360;9.736;2023-08-31T10:18:20;7.75;;;4.32;;
30647;SDS011;17683;53.360;9.736;2023-08-31T10:20:47;4.50;;;3.63;;
30647;SDS011;17683;53.360;9.736;2023-08-31T10:23:13;4.95;;;4.10;;
30647;SDS011;17683;53.360;9.736;2023-08-31T10:28:20;5.97;;;3.13;;
30647;SDS011;17683;53.360;9.736;2023-08-31T10:31:32;4.55;;;2.83;;
30647;SDS011;17683;53.360;9.736;2023-08-31T10:33:45;4.25;;;3.00;;
30647;SDS011;17683;53.360;9.736;2023-08-31T10:36:13;7.25;;;3.60;;
30647;SDS011;17683;53.360;9.736;2023-08-31T10:38:41;4.05;;;2.80;;
30647;SDS011;17683;53.360;9.736;2023-08-31T10:43:50;7.15;;;3.20;;
30647;SDS011;17683;53.360;9.736;2023-08-31T10:48:53;4.70;;;3.30;;
30647;SDS011;17683;53.360;9.736;2023-08-31T10:51:34;3.17;;;2.50;;
30647;SDS011;17683;53.360;9.736;2023-08-31T10:54:06;2.70;;;2.15;;
30647;SDS011;17683;53.360;9.736;2023-08-31T10:56:54;4.20;;;2.58;;
30647;SDS011;17683;53.360;9.736;2023-08-31T10:59:20;4.20;;;2.75;;
30647;SDS011;17683;53.360;9.736;2023-08-31T11:04:23;3.05;;;1.98;;
30647;SDS011;17683;53.360;9.736;2023-08-31T11:07:15;5.97;;;2.53;;
30647;SDS011;17683;53.360;9.736;2023-08-31T11:09:42;3.25;;;1.98;;
30647;SDS011;17683;53.360;9.736;2023-08-31T11:12:08;4.85;;;2.15;;
30647;SDS011;17683;53.360;9.736;2023-08-31T11:14:34;4.65;;;2.28;;
30647;SDS011;17683;53.360;9.736;2023-08-31T11:17:00;2.78;;;1.85;;
30647;SDS011;17683;53.360;9.736;2023-08-31T11:19:30;2.17;;;1.98;;
30647;SDS011;17683;53.360;9.736;2023-08-31T11:21:57;3.42;;;2.47;;
30647;SDS011;17683;53.360;9.736;2023-08-31T11:24:23;2.15;;;1.92;;
30647;SDS011;17683;53.360;9.736;2023-08-31T11:26:53;2.10;;;1.63;;
30647;SDS011;17683;53.360;9.736;2023-08-31T11:29:20;2.38;;;2.00;;
30647;SDS011;17683;53.360;9.736;2023-08-31T11:31:45;4.47;;;1.77;;
30647;SDS011;17683;53.360;9.736;2023-08-31T11:34:12;3.58;;;1.60;;
30647;SDS011;17683;53.360;9.736;2023-08-31T11:36:39;4.30;;;2.40;;
30647;SDS011;17683;53.360;9.736;2023-08-31T11:39:07;3.78;;;2.28;;
30647;SDS011;17683;53.360;9.736;2023-08-31T11:41:33;3.22;;;2.25;;
30647;SDS011;17683;53.360;9.736;2023-08-31T11:44:01;4.80;;;2.30;;
30647;SDS011;17683;53.360;9.736;2023-08-31T11:46:31;5.25;;;2.70;;
30647;SDS011;17683;53.360;9.736;2023-08-31T11:48:58;4.05;;;2.05;;
30647;SDS011;17683;53.360;9.736;2023-08-31T11:51:24;2.53;;;1.75;;
30647;SDS011;17683;53.360;9.736;2023-08-31T11:53:54;5.38;;;1.95;;
30647;SDS011;17683;53.360;9.736;2023-08-31T11:56:21;4.15;;;1.08;;
30647;SDS011;17683;53.360;9.736;2023-08-31T11:58:47;4.80;;;1.70;;
30647;SDS011;17683;53.360;9.736;2023-08-31T12:01:22;9.15;;;1.98;;
30647;SDS011;17683;53.360;9.736;2023-08-31T12:03:48;4.35;;;1.27;;
30647;SDS011;17683;53.360;9.736;2023-08-31T12:06:15;3.35;;;1.13;;
30647;SDS011;17683;53.360;9.736;2023-08-31T12:08:44;6.25;;;1.75;;
30647;SDS011;17683;53.360;9.736;2023-08-31T12:11:10;4.53;;;1.65;;
30647;SDS011;17683;53.360;9.736;2023-08-31T12:13:36;4.88;;;1.00;;
30647;SDS011;17683;53.360;9.736;2023-08-31T12:16:02;2.85;;;1.40;;
30647;SDS011;17683;53.360;9.736;2023-08-31T12:18:29;5.50;;;1.88;;
30647;SDS011;17683;53.360;9.736;2023-08-31T12:20:58;3.17;;;1.67;;
30647;SDS011;17683;53.360;9.736;2023-08-31T12:23:24;3.92;;;1.60;;
30647;SDS011;17683;53.360;9.736;2023-08-31T12:25:53;5.68;;;2.05;;
30647;SDS011;17683;53.360;9.736;2023-08-31T12:28:20;3.65;;;1.85;;
30647;SDS011;17683;53.360;9.736;2023-08-31T12:30:51;7.82;;;1.30;;
30647;SDS011;17683;53.360;9.736;2023-08-31T12:33:18;3.50;;;1.23;;
30647;SDS011;17683;53.360;9.736;2023-08-31T12:35:45;5.45;;;1.50;;
30647;SDS011;17683;53.360;9.736;2023-08-31T12:38:11;2.72;;;1.33;;
30647;SDS011;17683;53.360;9.736;2023-08-31T12:40:37;3.22;;;1.35;;
30647;SDS011;17683;53.360;9.736;2023-08-31T12:43:04;4.95;;;1.60;;
30647;SDS011;17683;53.360;9.736;2023-08-31T12:45:32;7.28;;;1.95;;
30647;SDS011;17683;53.360;9.736;2023-08-31T12:47:58;3.13;;;0.98;;
30647;SDS011;17683;53.360;9.736;2023-08-31T12:50:24;2.25;;;0.93;;
30647;SDS011;17683;53.360;9.736;2023-08-31T12:52:50;4.57;;;1.27;;
30647;SDS011;17683;53.360;9.736;2023-08-31T12:55:16;2.70;;;1.30;;
30647;SDS011;17683;53.360;9.736;2023-08-31T12:57:42;3.90;;;0.90;;
30647;SDS011;17683;53.360;9.736;2023-08-31T13:00:09;2.78;;;1.15;;
30647;SDS011;17683;53.360;9.736;2023-08-31T13:02:38;2.47;;;1.00;;
30647;SDS011;17683;53.360;9.736;2023-08-31T13:05:07;3.17;;;1.30;;
30647;SDS011;17683;53.360;9.736;2023-08-31T13:07:37;5.72;;;1.25;;
30647;SDS011;17683;53.360;9.736;2023-08-31T13:10:04;1.65;;;0.70;;
30647;SDS011;17683;53.360;9.736;2023-08-31T13:12:30;1.92;;;0.70;;
30647;SDS011;17683;53.360;9.736;2023-08-31T13:14:57;2.97;;;1.05;;
30647;SDS011;17683;53.360;9.736;2023-08-31T13:17:24;2.83;;;1.10;;
30647;SDS011;17683;53.360;9.736;2023-08-31T13:19:55;1.60;;;1.20;;
30647;SDS011;17683;53.360;9.736;2023-08-31T13:22:22;4.75;;;1.20;;
30647;SDS011;17683;53.360;9.736;2023-08-31T13:24:48;2.35;;;1.00;;
30647;SDS011;17683;53.360;9.736;2023-08-31T13:27:14;4.03;;;0.85;;
30647;SDS011;17683;53.360;9.736;2023-08-31T13:29:40;1.98;;;1.10;;
30647;SDS011;17683;53.360;9.736;2023-08-31T13:32:07;4.00;;;1.20;;
30647;SDS011;17683;53.360;9.736;2023-08-31T13:34:33;3.67;;;1.08;;
30647;SDS011;17683;53.360;9.736;2023-08-31T13:36:59;3.15;;;1.00;;
30647;SDS011;17683;53.360;9.736;2023-08-31T13:39:28;2.20;;;0.70;;
30647;SDS011;17683;53.360;9.736;2023-08-31T13:41:54;3.22;;;1.20;;
30647;SDS011;17683;53.360;9.736;2023-08-31T13:44:20;1.40;;;0.80;;
30647;SDS011;17683;53.360;9.736;2023-08-31T13:46:49;0.93;;;0.60;;
30647;SDS011;17683;53.360;9.736;2023-08-31T13:49:15;2.55;;;0.70;;
30647;SDS011;17683;53.360;9.736;2023-08-31T13:51:41;3.53;;;1.30;;
30647;SDS011;17683;53.360;9.736;2023-08-31T13:54:07;3.95;;;1.13;;
30647;SDS011;17683;53.360;9.736;2023-08-31T13:56:33;8.45;;;1.70;;
30647;SDS011;17683;53.360;9.736;2023-08-31T13:58:59;3.72;;;1.15;;
30647;SDS011;17683;53.360;9.736;2023-08-31T14:01:25;7.20;;;1.17;;
30647;SDS011;17683;53.360;9.736;2023-08-31T14:03:51;2.72;;;1.02;;
30647;SDS011;17683;53.360;9.736;2023-08-31T14:06:17;4.00;;;1.50;;
30647;SDS011;17683;53.360;9.736;2023-08-31T14:08:43;5.40;;;1.23;;
30647;SDS011;17683;53.360;9.736;2023-08-31T14:11:09;2.15;;;1.20;;
30647;SDS011;17683;53.360;9.736;2023-08-31T14:13:35;4.85;;;1.48;;
30647;SDS011;17683;53.360;9.736;2023-08-31T14:16:01;3.10;;;0.88;;
30647;SDS011;17683;53.360;9.736;2023-08-31T14:18:27;4.80;;;1.27;;
30647;SDS011;17683;53.360;9.736;2023-08-31T14:20:57;3.70;;;1.30;;
30647;SDS011;17683;53.360;9.736;2023-08-31T14:23:23;3.65;;;1.27;;
30647;SDS011;17683;53.360;9.736;2023-08-31T14:25:49;2.88;;;1.20;;
30647;SDS011;17683;53.360;9.736;2023-08-31T14:28:15;3.33;;;0.93;;
30647;SDS011;17683;53.360;9.736;2023-08-31T14:30:41;2.47;;;0.98;;
30647;SDS011;17683;53.360;9.736;2023-08-31T14:33:06;8.20;;;0.88;;
30647;SDS011;17683;53.360;9.736;2023-08-31T14:35:35;4.65;;;0.93;;
30647;SDS011;17683;53.360;9.736;2023-08-31T14:38:05;2.17;;;0.68;;
30647;SDS011;17683;53.360;9.736;2023-08-31T14:40:30;2.85;;;1.20;;
30647;SDS011;17683;53.360;9.736;2023-08-31T14:42:59;2.47;;;0.82;;
30647;SDS011;17683;53.360;9.736;2023-08-31T14:45:25;1.80;;;0.40;;
30647;SDS011;17683;53.360;9.736;2023-08-31T14:47:51;1.75;;;0.75;;
30647;SDS011;17683;53.360;9.736;2023-08-31T14:50:17;3.35;;;0.95;;
30647;SDS011;17683;53.360;9.736;2023-08-31T14:52:42;2.13;;;0.73;;
30647;SDS011;17683;53.360;9.736;2023-08-31T14:55:08;1.95;;;0.63;;
30647;SDS011;17683;53.360;9.736;2023-08-31T14:57:34;2.17;;;0.70;;
30647;SDS011;17683;53.360;9.736;2023-08-31T14:59:59;2.95;;;0.70;;
30647;SDS011;17683;53.360;9.736;2023-08-31T15:02:25;2.85;;;0.75;;